createdAt,value
2018-06-17T00:00:43.934Z,14.20
2018-06-17T00:03:12.105Z,14.20
2018-06-17T00:05:40.272Z,14.20
2018-06-17T00:08:08.433Z,14.10
2018-06-17T00:10:36.804Z,14.10
2018-06-17T00:13:04.968Z,14.10
2018-06-17T00:15:33.117Z,14.10
2018-06-17T00:18:01.272Z,14.10
2018-06-17T00:20:29.477Z,14.10
2018-06-17T00:22:57.623Z,14.00
2018-06-17T00:25:25.763Z,14.00
2018-06-17T00:27:53.991Z,14.00
2018-06-17T00:30:22.179Z,14.00
2018-06-17T00:32:50.343Z,14.00
2018-06-17T00:35:18.492Z,14.00
2018-06-17T00:37:46.648Z,13.90
2018-06-17T00:40:14.811Z,13.90
2018-06-17T00:42:43.036Z,13.90
2018-06-17T00:45:11.188Z,13.80
2018-06-17T00:47:39.354Z,13.80
2018-06-17T00:50:07.564Z,13.80
2018-06-17T00:52:35.684Z,13.80
2018-06-17T00:55:03.840Z,13.70
2018-06-17T00:57:45.268Z,13.70
2018-06-17T01:00:13.408Z,13.70
2018-06-17T01:02:41.696Z,13.60
2018-06-17T01:05:09.857Z,13.60
2018-06-17T01:07:38.112Z,13.60
2018-06-17T01:10:06.373Z,13.50
2018-06-17T01:12:34.534Z,13.50
2018-06-17T01:15:02.689Z,13.50
2018-06-17T01:19:58.772Z,13.50
2018-06-17T01:22:26.932Z,13.50
2018-06-17T01:24:55.094Z,13.50
2018-06-17T01:27:23.292Z,13.40
2018-06-17T01:29:51.440Z,13.40
2018-06-17T01:32:19.607Z,13.50
2018-06-17T01:34:47.759Z,13.50
2018-06-17T01:37:16.016Z,13.50
2018-06-17T01:39:44.241Z,13.50
2018-06-17T01:42:12.431Z,13.50
2018-06-17T01:44:40.648Z,13.50
2018-06-17T01:47:08.810Z,13.50
2018-06-17T01:49:37.025Z,13.50
2018-06-17T01:52:05.204Z,13.50
2018-06-17T01:54:33.361Z,13.50
2018-06-17T01:59:29.520Z,13.60
2018-06-17T02:01:57.726Z,13.60
2018-06-17T02:04:31.305Z,13.60
2018-06-17T02:07:04.938Z,13.60
2018-06-17T02:09:38.540Z,13.70
2018-06-17T02:12:12.291Z,13.70
2018-06-17T02:14:45.804Z,13.70
2018-06-17T02:17:14.047Z,13.70
2018-06-17T02:19:42.203Z,13.70
2018-06-17T02:22:10.367Z,13.70
2018-06-17T02:24:38.527Z,13.70
2018-06-17T02:27:06.679Z,13.70
2018-06-17T02:29:34.945Z,13.70
2018-06-17T02:32:03.273Z,13.80
2018-06-17T02:34:31.501Z,13.80
2018-06-17T02:36:59.730Z,13.80
2018-06-17T02:39:27.942Z,13.80
2018-06-17T02:41:56.558Z,13.80
2018-06-17T02:44:24.726Z,13.90
2018-06-17T02:46:58.329Z,13.90
2018-06-17T02:49:32.113Z,13.90
2018-06-17T02:52:05.771Z,13.90
2018-06-17T02:54:39.216Z,13.90
2018-06-17T02:57:08.868Z,14.00
2018-06-17T02:59:37.098Z,14.00
2018-06-17T03:02:05.285Z,14.00
2018-06-17T03:04:33.528Z,14.00
2018-06-17T03:07:01.701Z,14.00
2018-06-17T03:09:29.860Z,14.00
2018-06-17T03:11:58.036Z,14.00
2018-06-17T03:14:26.753Z,14.10
2018-06-17T03:16:55.028Z,14.10
2018-06-17T03:19:23.564Z,14.10
2018-06-17T03:21:51.719Z,14.10
2018-06-17T03:24:24.184Z,14.10
2018-06-17T03:26:57.835Z,14.10
2018-06-17T03:29:31.418Z,14.20
2018-06-17T03:32:04.991Z,14.20
2018-06-17T03:34:33.151Z,14.20
2018-06-17T03:37:01.328Z,14.20
2018-06-17T03:39:29.534Z,14.20
2018-06-17T03:41:57.700Z,14.20
2018-06-17T03:44:25.864Z,14.20
2018-06-17T03:46:54.013Z,14.20
2018-06-17T03:49:22.189Z,14.20
2018-06-17T03:51:50.336Z,14.30
2018-06-17T03:54:18.512Z,14.30
2018-06-17T03:57:03.667Z,14.30
2018-06-17T03:59:31.833Z,14.30
2018-06-17T04:01:59.988Z,14.30
2018-06-17T04:04:28.209Z,14.30
2018-06-17T04:06:56.421Z,14.30
2018-06-17T04:09:24.599Z,14.40
2018-06-17T04:11:52.779Z,14.40
2018-06-17T04:14:20.959Z,14.40
2018-06-17T04:16:49.136Z,14.40
2018-06-17T04:21:45.286Z,14.40
2018-06-17T04:24:13.532Z,14.40
2018-06-17T04:26:41.725Z,14.40
2018-06-17T04:29:09.944Z,14.40
2018-06-17T04:31:38.182Z,14.50
2018-06-17T04:34:06.379Z,14.50
2018-06-17T04:36:34.627Z,14.50
2018-06-17T04:39:02.872Z,14.50
2018-06-17T04:41:31.223Z,14.50
2018-06-17T04:43:59.463Z,14.60
2018-06-17T04:46:27.620Z,14.60
2018-06-17T04:48:55.805Z,14.60
2018-06-17T04:51:24.002Z,14.60
2018-06-17T04:53:52.264Z,14.60
2018-06-17T04:56:20.557Z,14.70
2018-06-17T04:58:48.811Z,14.70
2018-06-17T05:01:16.980Z,14.70
2018-06-17T05:03:45.208Z,14.70
2018-06-17T05:06:13.441Z,14.70
2018-06-17T05:08:41.709Z,14.70
2018-06-17T05:11:09.884Z,14.70
2018-06-17T05:13:38.048Z,14.70
2018-06-17T05:16:06.228Z,14.70
2018-06-17T05:18:34.514Z,14.70
2018-06-17T05:21:02.832Z,14.70
2018-06-17T05:23:31.056Z,14.80
2018-06-17T05:25:59.421Z,14.80
2018-06-17T05:28:27.684Z,14.80
2018-06-17T05:30:55.875Z,14.80
2018-06-17T05:33:24.053Z,14.80
2018-06-17T05:35:52.320Z,14.80
2018-06-17T05:38:20.520Z,14.80
2018-06-17T05:40:48.783Z,14.90
2018-06-17T05:43:17.595Z,14.90
2018-06-17T05:45:45.915Z,14.90
2018-06-17T05:48:14.115Z,15.00
2018-06-17T05:50:42.401Z,15.00
2018-06-17T05:53:11.263Z,15.00
2018-06-17T05:55:39.510Z,15.00
2018-06-17T05:58:08.340Z,15.10
2018-06-17T06:00:36.547Z,15.20
2018-06-17T06:03:04.784Z,15.20
2018-06-17T06:08:00.974Z,15.20
2018-06-17T06:10:29.392Z,15.30
2018-06-17T06:12:57.671Z,15.30
2018-06-17T06:15:25.877Z,15.30
2018-06-17T06:17:54.140Z,15.30
2018-06-17T06:20:22.664Z,15.30
2018-06-17T06:22:50.889Z,15.30
2018-06-17T06:25:19.071Z,15.30
2018-06-17T06:27:47.234Z,15.30
2018-06-17T06:30:15.505Z,15.40
2018-06-17T06:32:43.698Z,15.50
2018-06-17T06:35:11.972Z,15.60
2018-06-17T06:37:40.569Z,15.60
2018-06-17T06:40:08.860Z,15.70
2018-06-17T06:42:37.092Z,15.80
2018-06-17T06:45:05.559Z,15.90
2018-06-17T06:47:33.742Z,16.00
2018-06-17T06:50:01.980Z,16.00
2018-06-17T06:52:30.070Z,16.10
2018-06-17T06:54:58.291Z,16.10
2018-06-17T06:57:26.603Z,16.20
2018-06-17T06:59:54.740Z,16.20
2018-06-17T07:02:34.115Z,16.30
2018-06-17T07:05:13.651Z,16.30
2018-06-17T07:10:00.195Z,16.30
2018-06-17T07:12:28.372Z,16.30
2018-06-17T07:14:56.708Z,16.40
2018-06-17T07:17:36.206Z,16.40
2018-06-17T07:20:04.380Z,16.40
2018-06-17T07:22:32.557Z,16.40
2018-06-17T07:25:00.909Z,16.40
2018-06-17T07:27:40.361Z,16.40
2018-06-17T07:30:08.535Z,16.40
2018-06-17T07:32:36.765Z,16.40
2018-06-17T07:35:04.976Z,16.30
2018-06-17T07:37:33.147Z,16.30
2018-06-17T07:41:03.717Z,16.40
2018-06-17T07:43:31.920Z,16.40
2018-06-17T07:46:00.162Z,16.50
2018-06-17T07:49:45.530Z,16.50
2018-06-17T07:52:26.061Z,16.50
2018-06-17T07:54:54.346Z,16.50
2018-06-17T07:57:23.796Z,16.50
2018-06-17T07:59:52.033Z,16.60
2018-06-17T08:02:20.215Z,16.60
2018-06-17T08:04:48.401Z,16.70
2018-06-17T08:07:16.791Z,16.70
2018-06-17T08:09:45.040Z,16.80
2018-06-17T08:12:13.472Z,16.80
2018-06-17T08:14:41.867Z,16.90
2018-06-17T08:17:10.100Z,16.90
2018-06-17T08:19:38.583Z,17.00
2018-06-17T08:22:06.837Z,17.00
2018-06-17T08:24:35.453Z,17.10
2018-06-17T08:27:03.772Z,17.20
2018-06-17T08:29:32.532Z,17.20
2018-06-17T08:32:00.749Z,17.30
2018-06-17T08:34:28.919Z,17.40
2018-06-17T08:36:57.120Z,17.50
2018-06-17T08:39:25.636Z,17.50
2018-06-17T08:41:53.917Z,17.60
2018-06-17T08:44:22.408Z,17.60
2018-06-17T08:46:51.065Z,17.60
2018-06-17T08:49:19.890Z,17.50
2018-06-17T08:51:48.093Z,17.50
2018-06-17T08:54:16.414Z,17.50
2018-06-17T08:56:44.644Z,17.60
2018-06-17T08:59:12.889Z,17.70
2018-06-17T09:01:41.269Z,17.80
2018-06-17T09:04:09.565Z,17.80
2018-06-17T09:06:37.777Z,17.80
2018-06-17T09:09:08.672Z,17.90
2018-06-17T09:11:37.041Z,17.90
2018-06-17T09:14:05.237Z,17.90
2018-06-17T09:16:33.418Z,17.90
2018-06-17T09:19:01.772Z,17.80
2018-06-17T09:21:30.132Z,17.80
2018-06-17T09:23:58.432Z,17.80
2018-06-17T09:26:26.622Z,17.80
2018-06-17T09:28:54.948Z,17.70
2018-06-17T09:31:23.243Z,17.70
2018-06-17T09:33:51.428Z,17.60
2018-06-17T09:36:19.611Z,17.60
2018-06-17T09:38:47.785Z,17.50
2018-06-17T09:41:16.052Z,17.50
2018-06-17T09:43:44.469Z,17.50
2018-06-17T09:46:12.699Z,17.50
2018-06-17T09:48:40.909Z,17.50
2018-06-17T09:51:09.160Z,17.50
2018-06-17T09:53:37.441Z,17.50
2018-06-17T09:56:05.792Z,17.50
2018-06-17T09:58:34.126Z,17.50
2018-06-17T10:01:02.268Z,17.60
2018-06-17T10:03:30.444Z,17.70
2018-06-17T10:05:58.605Z,17.70
2018-06-17T10:08:26.780Z,17.70
2018-06-17T10:10:56.940Z,17.70
2018-06-17T10:13:26.368Z,17.60
2018-06-17T10:15:54.719Z,17.60
2018-06-17T10:18:23.525Z,17.60
2018-06-17T10:20:51.779Z,17.50
2018-06-17T10:23:21.374Z,17.50
2018-06-17T10:25:49.700Z,17.60
2018-06-17T10:28:21.454Z,17.70
2018-06-17T10:30:51.316Z,17.70
2018-06-17T10:33:20.565Z,17.70
2018-06-17T10:35:49.983Z,17.60
2018-06-17T10:38:24.633Z,17.40
2018-06-17T10:40:54.494Z,17.30
2018-06-17T10:43:25.734Z,17.20
2018-06-17T10:45:55.576Z,17.10
2018-06-17T10:48:25.032Z,17.10
2018-06-17T10:50:53.287Z,17.10
2018-06-17T10:53:22.902Z,17.10
2018-06-17T10:55:52.500Z,17.10
2018-06-17T10:58:22.841Z,17.10
2018-06-17T11:00:52.302Z,17.10
2018-06-17T11:03:22.775Z,17.10
2018-06-17T11:05:51.086Z,17.10
2018-06-17T11:08:19.405Z,17.00
2018-06-17T11:10:48.026Z,17.00
2018-06-17T11:13:17.374Z,17.00
2018-06-17T11:15:47.029Z,17.00
2018-06-17T11:18:15.290Z,17.00
2018-06-17T11:20:44.070Z,16.90
2018-06-17T11:23:13.123Z,16.90
2018-06-17T11:25:42.442Z,16.90
2018-06-17T11:28:10.707Z,16.90
2018-06-17T11:30:38.890Z,16.80
2018-06-17T11:33:08.016Z,16.80
2018-06-17T11:35:36.214Z,16.70
2018-06-17T11:38:05.880Z,16.70
2018-06-17T11:40:35.380Z,16.70
2018-06-17T11:43:04.496Z,16.80
2018-06-17T11:45:33.908Z,16.80
2018-06-17T11:48:02.664Z,16.90
2018-06-17T11:50:31.550Z,17.00
2018-06-17T11:53:00.982Z,17.10
2018-06-17T11:55:29.187Z,17.10
2018-06-17T11:57:57.391Z,17.10
2018-06-17T12:00:25.745Z,17.10
2018-06-17T12:02:53.953Z,17.10
2018-06-17T12:05:22.104Z,17.10
2018-06-17T12:07:50.476Z,17.10
2018-06-17T12:10:18.669Z,17.00
2018-06-17T12:12:47.625Z,17.00
2018-06-17T12:15:16.808Z,17.10
2018-06-17T12:17:46.344Z,17.10
2018-06-17T12:20:15.486Z,17.10
2018-06-17T12:22:43.711Z,17.10
2018-06-17T12:25:12.012Z,17.10
2018-06-17T12:27:40.165Z,17.10
2018-06-17T12:30:08.661Z,17.10
2018-06-17T12:32:37.615Z,17.20
2018-06-17T12:35:06.586Z,17.30
2018-06-17T12:37:35.785Z,17.40
2018-06-17T12:40:05.053Z,17.50
2018-06-17T12:42:34.446Z,17.60
2018-06-17T12:45:03.447Z,17.60
2018-06-17T12:47:32.453Z,17.60
2018-06-17T12:50:01.665Z,17.60
2018-06-17T12:52:30.778Z,17.50
2018-06-17T12:55:00.604Z,17.50
2018-06-17T12:57:29.558Z,17.50
2018-06-17T12:59:58.673Z,17.50
2018-06-17T13:02:27.698Z,17.50
2018-06-17T13:04:56.843Z,17.50
2018-06-17T13:07:26.179Z,17.40
2018-06-17T13:09:54.565Z,17.40
2018-06-17T13:12:25.616Z,17.40
2018-06-17T13:14:54.891Z,17.40
2018-06-17T13:17:24.553Z,17.40
2018-06-17T13:19:53.837Z,17.20
2018-06-17T13:22:23.228Z,17.30
2018-06-17T13:24:53.272Z,17.20
2018-06-17T13:27:22.602Z,17.20
2018-06-17T13:29:50.961Z,17.10
2018-06-17T13:32:19.148Z,17.10
2018-06-17T13:34:47.497Z,17.00
2018-06-17T13:37:15.700Z,17.00
2018-06-17T13:39:44.004Z,16.90
2018-06-17T13:42:12.204Z,16.90
2018-06-17T13:44:40.366Z,16.90
2018-06-17T13:47:08.545Z,16.80
2018-06-17T13:49:36.697Z,16.80
2018-06-17T13:52:04.855Z,16.80
2018-06-17T13:54:33.037Z,16.80
2018-06-17T13:57:01.224Z,16.80
2018-06-17T13:59:29.432Z,16.70
2018-06-17T14:01:57.587Z,16.70
2018-06-17T14:07:08.437Z,16.60
2018-06-17T14:09:37.235Z,16.70
2018-06-17T14:12:06.273Z,16.60
2018-06-17T14:14:34.758Z,16.60
2018-06-17T14:17:04.529Z,16.60
2018-06-17T14:19:34.093Z,16.50
2018-06-17T14:22:02.274Z,16.50
2018-06-17T14:24:31.046Z,16.40
2018-06-17T14:26:59.200Z,16.40
2018-06-17T14:29:27.449Z,16.40
2018-06-17T14:31:57.356Z,16.40
2018-06-17T14:34:25.756Z,16.40
2018-06-17T14:36:54.484Z,16.50
2018-06-17T14:39:22.940Z,16.50
2018-06-17T14:41:56.444Z,16.50
2018-06-17T14:44:30.067Z,16.60
2018-06-17T14:47:03.716Z,16.60
2018-06-17T14:49:37.364Z,16.70
2018-06-17T14:52:11.180Z,16.70
2018-06-17T14:54:39.949Z,16.80
2018-06-17T14:57:08.254Z,16.80
2018-06-17T14:59:36.537Z,16.80
2018-06-17T15:02:04.813Z,16.80
2018-06-17T15:04:33.062Z,16.80
2018-06-17T15:07:01.212Z,16.90
2018-06-17T15:09:29.511Z,16.90
2018-06-17T15:11:57.740Z,16.90
2018-06-17T15:14:25.911Z,17.00
2018-06-17T15:16:54.072Z,17.00
2018-06-17T15:19:22.298Z,17.00
2018-06-17T15:21:50.514Z,17.00
2018-06-17T15:24:18.673Z,17.00
2018-06-17T15:26:47.644Z,17.10
2018-06-17T15:29:15.800Z,17.10
2018-06-17T15:31:49.201Z,17.10
2018-06-17T15:34:22.775Z,17.10
2018-06-17T15:36:56.361Z,17.20
2018-06-17T15:39:29.851Z,17.20
2018-06-17T15:41:57.981Z,17.20
2018-06-17T15:44:26.452Z,17.20
2018-06-17T15:46:54.659Z,17.20
2018-06-17T15:49:23.516Z,17.20
2018-06-17T15:51:51.707Z,17.20
2018-06-17T15:54:20.061Z,17.10
2018-06-17T15:56:48.241Z,17.10
2018-06-17T15:59:16.497Z,17.10
2018-06-17T16:01:44.661Z,17.10
2018-06-17T16:04:13.016Z,17.20
2018-06-17T16:06:41.177Z,17.20
2018-06-17T16:09:10.674Z,17.30
2018-06-17T16:11:44.157Z,17.40
2018-06-17T16:14:17.780Z,17.50
2018-06-17T16:16:51.239Z,17.50
2018-06-17T16:19:24.858Z,17.70
2018-06-17T16:21:53.962Z,17.80
2018-06-17T16:24:22.128Z,17.80
2018-06-17T16:26:50.293Z,17.80
2018-06-17T16:29:18.463Z,17.80
2018-06-17T16:31:46.630Z,17.80
2018-06-17T16:34:14.777Z,17.80
2018-06-17T16:36:43.045Z,17.80
2018-06-17T16:39:12.591Z,17.90
2018-06-17T16:41:41.210Z,18.00
2018-06-17T16:44:10.181Z,18.00
2018-06-17T16:46:38.751Z,18.00
2018-06-17T16:49:07.216Z,18.00
2018-06-17T16:51:40.938Z,17.90
2018-06-17T16:54:14.480Z,17.80
2018-06-17T16:56:48.147Z,17.80
2018-06-17T16:59:21.709Z,17.70
2018-06-17T17:01:50.466Z,17.70
2018-06-17T17:04:18.667Z,17.70
2018-06-17T17:06:46.921Z,17.80
2018-06-17T17:09:15.079Z,18.00
2018-06-17T17:11:43.240Z,18.30
2018-06-17T17:14:12.125Z,19.20
2018-06-17T17:16:40.907Z,20.10
2018-06-17T17:19:09.096Z,20.20
2018-06-17T17:21:37.267Z,20.00
2018-06-17T17:24:05.705Z,19.60
2018-06-17T17:26:34.736Z,19.20
2018-06-17T17:29:02.900Z,18.90
2018-06-17T17:31:36.443Z,18.60
2018-06-17T17:36:10.969Z,18.30
2018-06-17T17:38:44.568Z,18.00
2018-06-17T17:41:12.716Z,17.80
2018-06-17T17:43:40.936Z,17.80
2018-06-17T17:46:14.413Z,18.00
2018-06-17T17:48:42.572Z,18.20
2018-06-17T17:51:10.737Z,18.40
2018-06-17T17:53:38.905Z,18.50
2018-06-17T17:56:07.081Z,18.50
2018-06-17T17:58:35.234Z,18.50
2018-06-17T18:01:03.407Z,18.50
2018-06-17T18:03:31.648Z,18.40
2018-06-17T18:06:00.541Z,18.30
2018-06-17T18:08:28.772Z,18.20
2018-06-17T18:10:56.919Z,18.00
2018-06-17T18:13:25.249Z,17.90
2018-06-17T18:15:54.793Z,17.70
2018-06-17T18:18:22.956Z,17.60
2018-06-17T18:20:51.136Z,17.50
2018-06-17T18:23:19.317Z,17.40
2018-06-17T18:25:52.780Z,17.30
2018-06-17T18:28:26.277Z,17.30
2018-06-17T18:30:56.737Z,17.20
2018-06-17T18:33:30.148Z,17.10
2018-06-17T18:36:03.793Z,17.10
2018-06-17T18:38:31.965Z,17.00
2018-06-17T18:41:00.217Z,17.00
2018-06-17T18:43:28.392Z,17.00
2018-06-17T18:45:56.677Z,16.90
2018-06-17T18:48:25.496Z,16.90
2018-06-17T18:50:53.779Z,16.90
2018-06-17T18:53:24.133Z,16.80
2018-06-17T18:55:52.356Z,16.80
2018-06-17T18:58:20.792Z,16.80
2018-06-17T19:00:50.922Z,16.70
2018-06-17T19:03:19.397Z,16.70
2018-06-17T19:05:48.117Z,16.70
2018-06-17T19:08:21.731Z,16.60
2018-06-17T19:10:55.254Z,16.60
2018-06-17T19:13:28.840Z,16.60
2018-06-17T19:16:03.252Z,16.60
2018-06-17T19:18:31.970Z,16.60
2018-06-17T19:21:00.194Z,16.60
2018-06-17T19:23:28.652Z,16.60
2018-06-17T19:25:56.803Z,16.50
2018-06-17T19:28:24.963Z,16.50
2018-06-17T19:30:53.134Z,16.50
2018-06-17T19:33:21.304Z,16.50
2018-06-17T19:35:49.451Z,16.40
2018-06-17T19:38:17.620Z,16.40
2018-06-17T19:40:45.860Z,16.40
2018-06-17T19:43:13.964Z,16.40
2018-06-17T19:45:42.131Z,16.40
2018-06-17T19:48:10.337Z,16.40
2018-06-17T19:50:43.897Z,16.40
2018-06-17T19:53:17.396Z,16.30
2018-06-17T19:55:51.076Z,16.30
2018-06-17T19:58:24.830Z,16.30
2018-06-17T20:00:55.902Z,16.30
2018-06-17T20:03:24.166Z,16.20
2018-06-17T20:05:52.332Z,16.20
2018-06-17T20:08:20.572Z,16.20
2018-06-17T20:10:48.872Z,16.20
2018-06-17T20:13:17.089Z,16.10
2018-06-17T20:15:45.434Z,16.10
2018-06-17T20:18:13.600Z,16.10
2018-06-17T20:23:09.811Z,16.10
2018-06-17T20:25:39.061Z,16.10
2018-06-17T20:28:07.228Z,16.00
2018-06-17T20:30:35.419Z,16.00
2018-06-17T20:33:09.055Z,16.00
2018-06-17T20:35:42.597Z,16.00
2018-06-17T20:38:16.248Z,15.90
2018-06-17T20:40:49.985Z,15.90
2018-06-17T20:44:22.073Z,15.90
2018-06-17T20:46:50.243Z,15.90
2018-06-17T20:49:18.416Z,15.90
2018-06-17T20:51:46.631Z,15.80
2018-06-17T20:54:14.840Z,15.80
2018-06-17T20:56:43.100Z,15.70
2018-06-17T20:59:11.379Z,15.70
2018-06-17T21:01:39.720Z,15.70
2018-06-17T21:04:07.913Z,15.70
2018-06-17T21:06:36.135Z,15.60
2018-06-17T21:09:06.033Z,15.60
2018-06-17T21:11:34.201Z,15.50
2018-06-17T21:14:02.375Z,15.50
2018-06-17T21:16:30.573Z,15.50
2018-06-17T21:21:11.160Z,15.40
2018-06-17T21:23:44.831Z,15.40
2018-06-17T21:26:18.469Z,15.40
2018-06-17T21:28:46.767Z,15.30
2018-06-17T21:31:15.002Z,15.30
2018-06-17T21:33:43.165Z,15.20
2018-06-17T21:36:11.617Z,15.20
2018-06-17T21:38:39.861Z,15.20
2018-06-17T21:41:08.136Z,15.20
2018-06-17T21:43:36.532Z,15.10
2018-06-17T21:46:04.688Z,15.10
2018-06-17T21:48:32.863Z,15.10
2018-06-17T21:51:01.074Z,15.10
2018-06-17T21:53:29.351Z,15.10
2018-06-17T21:55:57.555Z,15.10
2018-06-17T21:58:56.416Z,15.10
2018-06-17T22:01:24.667Z,15.10
2018-06-17T22:03:52.914Z,15.00
2018-06-17T22:06:21.071Z,15.00
2018-06-17T22:08:54.477Z,15.00
2018-06-17T22:11:28.089Z,14.90
2018-06-17T22:16:08.457Z,14.90
2018-06-17T22:18:36.748Z,14.90
2018-06-17T22:21:05.354Z,14.90
2018-06-17T22:23:34.002Z,14.80
2018-06-17T22:26:02.252Z,14.80
2018-06-17T22:28:30.420Z,14.80
2018-06-17T22:30:58.582Z,14.80
2018-06-17T22:33:26.736Z,14.80
2018-06-17T22:35:55.073Z,14.80
2018-06-17T22:38:23.300Z,14.80
2018-06-17T22:40:51.473Z,14.80
2018-06-17T22:43:19.686Z,14.80
2018-06-17T22:45:47.844Z,14.80
2018-06-17T22:48:16.022Z,14.80
2018-06-17T22:50:44.377Z,14.80
2018-06-17T22:53:24.052Z,14.80
2018-06-17T22:55:52.218Z,14.80
2018-06-17T22:58:25.969Z,14.80
2018-06-17T23:00:59.713Z,14.80
2018-06-17T23:03:33.439Z,14.80
2018-06-17T23:06:07.645Z,14.80
2018-06-17T23:08:41.300Z,14.80
2018-06-17T23:11:09.477Z,14.80
2018-06-17T23:13:37.646Z,14.80
2018-06-17T23:16:05.827Z,14.80
2018-06-17T23:18:33.988Z,14.80
2018-06-17T23:21:02.162Z,14.80
2018-06-17T23:23:30.322Z,14.80
2018-06-17T23:25:58.481Z,14.80
2018-06-17T23:28:26.720Z,14.80
2018-06-17T23:30:54.955Z,14.80
2018-06-17T23:33:23.206Z,14.80
2018-06-17T23:35:51.364Z,14.80
2018-06-17T23:38:19.566Z,14.80
2018-06-17T23:40:47.785Z,14.90
2018-06-17T23:43:15.988Z,14.80
2018-06-17T23:45:49.628Z,14.80
2018-06-17T23:48:23.284Z,14.80
2018-06-17T23:50:56.981Z,14.80
2018-06-17T23:53:30.517Z,14.80
2018-06-17T23:56:04.236Z,14.80
2018-06-17T23:58:33.024Z,14.80
